Time;durP1;ratioP1;P1;durP2;ratioP2;P2;SDS_P1;SDS_P2;PMS_P1;PMS_P2;Temp;Humidity;BMP_temperature;BMP_pressure;BME280_temperature;BME280_humidity;BME280_pressure;Samples;Min_cycle;Max_cycle;Signal;HPM_P1;HPM_P2
2021/03/17 00:01:47;;;;;;;2.78;1.13;;;17.40;44.10;;;;;;4848311;29;20511;-82
2021/03/17 00:04:21;;;;;;;3.60;1.20;;;17.40;44.00;;;;;;4849568;29;20166;-83
2021/03/17 00:06:56;;;;;;;2.17;1.17;;;17.40;44.00;;;;;;4832721;29;20225;-82
2021/03/17 00:09:23;;;;;;;2.92;1.17;;;17.40;44.10;;;;;;4848125;29;20252;-82
2021/03/17 00:11:50;;;;;;;2.90;1.17;;;17.40;44.00;;;;;;4832097;29;20182;-82
2021/03/17 00:14:17;;;;;;;4.03;1.27;;;17.40;44.10;;;;;;4848551;29;20208;-82
2021/03/17 00:16:44;;;;;;;3.45;1.27;;;17.40;44.10;;;;;;4851373;29;20203;-82
2021/03/17 00:19:12;;;;;;;2.95;1.10;;;17.40;44.10;;;;;;4851218;29;20225;-82
2021/03/17 00:21:47;;;;;;;2.70;1.10;;;17.40;44.10;;;;;;4836251;29;20173;-82
2021/03/17 00:24:14;;;;;;;2.58;1.20;;;17.40;44.20;;;;;;4853197;29;20168;-82
2021/03/17 00:26:39;;;;;;;3.70;1.60;;;17.40;44.10;;;;;;4851438;29;20178;-82
2021/03/17 00:29:05;;;;;;;4.38;1.23;;;17.40;44.00;;;;;;4836123;29;20181;-82
2021/03/17 00:31:34;;;;;;;4.20;1.40;;;17.40;44.10;;;;;;4851553;29;20630;-82
2021/03/17 00:34:00;;;;;;;4.20;1.35;;;17.40;44.10;;;;;;4851485;29;20560;-83
2021/03/17 00:36:26;;;;;;;4.72;1.00;;;17.30;44.10;;;;;;4835523;29;20236;-82
2021/03/17 00:38:51;;;;;;;3.88;1.30;;;17.40;44.10;;;;;;4835806;29;20587;-83
2021/03/17 00:41:18;;;;;;;4.95;1.35;;;17.40;44.10;;;;;;4835725;29;20192;-82
2021/03/17 00:43:45;;;;;;;5.28;1.45;;;17.40;44.20;;;;;;4835705;29;20204;-82
2021/03/17 00:46:12;;;;;;;5.18;1.30;;;17.30;44.00;;;;;;4835222;29;20184;-82
2021/03/17 00:48:38;;;;;;;2.50;1.15;;;17.30;44.20;;;;;;4850995;29;20161;-82
2021/03/17 00:51:05;;;;;;;3.40;1.40;;;17.30;44.10;;;;;;4851044;29;20161;-82
2021/03/17 00:53:33;;;;;;;4.75;1.20;;;17.30;44.20;;;;;;4850332;29;20186;-82
2021/03/17 00:56:01;;;;;;;3.30;1.10;;;17.30;44.20;;;;;;4849993;29;20161;-83
2021/03/17 00:58:28;;;;;;;1.73;1.05;;;17.30;44.20;;;;;;4834875;29;20170;-82
2021/03/17 01:00:54;;;;;;;2.00;1.02;;;17.30;44.30;;;;;;4835184;29;20177;-81
2021/03/17 01:03:21;;;;;;;2.45;1.40;;;17.30;44.20;;;;;;4834162;29;20174;-82
2021/03/17 01:05:56;;;;;;;4.07;1.40;;;17.30;44.30;;;;;;4850011;29;20664;-82
2021/03/17 01:08:23;;;;;;;1.75;1.10;;;17.30;44.30;;;;;;4835265;29;20173;-82
2021/03/17 01:10:49;;;;;;;5.07;1.33;;;17.30;44.20;;;;;;4834194;29;20222;-82
2021/03/17 01:13:18;;;;;;;2.42;1.48;;;17.30;44.30;;;;;;4834078;29;20170;-82
2021/03/17 01:15:45;;;;;;;2.65;1.15;;;17.30;44.20;;;;;;4834901;29;20185;-82
2021/03/17 01:18:11;;;;;;;2.13;1.10;;;17.30;44.90;;;;;;4849682;29;20166;-82
2021/03/17 01:20:38;;;;;;;2.80;1.20;;;17.30;44.20;;;;;;4849075;29;20181;-82
2021/03/17 01:23:13;;;;;;;3.28;1.02;;;17.30;44.30;;;;;;4849651;29;20195;-82
2021/03/17 01:25:41;;;;;;;2.88;1.05;;;17.30;44.40;;;;;;4833343;29;20169;-82
2021/03/17 01:28:08;;;;;;;4.60;1.27;;;17.30;44.40;;;;;;4849447;29;20162;-82
2021/03/17 01:30:55;;;;;;;1.83;1.00;;;17.30;44.40;;;;;;4833868;29;20260;-82
2021/03/17 01:33:27;;;;;;;3.65;1.10;;;17.30;44.40;;;;;;4833462;29;20196;-82
2021/03/17 01:35:54;;;;;;;3.63;1.13;;;17.30;44.20;;;;;;4832561;29;20657;-82
2021/03/17 01:38:21;;;;;;;2.17;1.00;;;17.30;44.30;;;;;;4832905;29;20260;-82
2021/03/17 01:40:48;;;;;;;3.17;1.20;;;17.30;44.30;;;;;;4849168;29;20157;-82
2021/03/17 01:43:23;;;;;;;2.00;1.10;;;17.30;44.30;;;;;;4833308;29;20177;-82
2021/03/17 01:45:50;;;;;;;3.55;1.10;;;17.30;44.40;;;;;;4848753;29;20165;-82
2021/03/17 01:48:18;;;;;;;1.55;0.88;;;17.20;44.30;;;;;;4847850;29;20241;-82
2021/03/17 01:50:50;;;;;;;1.80;1.10;;;17.20;44.50;;;;;;4848362;29;20158;-82
2021/03/17 01:53:18;;;;;;;2.60;1.00;;;17.30;44.40;;;;;;4848443;29;20165;-83
2021/03/17 01:55:44;;;;;;;3.45;1.30;;;17.30;44.50;;;;;;4863673;29;20178;-83
2021/03/17 01:58:12;;;;;;;5.00;1.10;;;17.30;44.40;;;;;;4847681;29;20205;-82
2021/03/17 02:00:39;;;;;;;3.45;1.40;;;17.30;44.30;;;;;;4848228;29;20168;-82
2021/03/17 02:03:17;;;;;;;3.63;1.38;;;17.30;44.30;;;;;;4847822;29;20214;-82
2021/03/17 02:06:02;;;;;;;3.40;1.25;;;17.30;44.40;;;;;;4832047;29;20179;-82
2021/03/17 02:08:36;;;;;;;2.28;1.00;;;17.20;44.50;;;;;;4847763;29;20616;-82
2021/03/17 02:11:03;;;;;;;2.67;1.17;;;17.20;44.50;;;;;;4848329;29;20185;-82
2021/03/17 02:14:06;;;;;;;2.55;1.55;;;17.20;44.40;;;;;;4833038;29;20181;-82
2021/03/17 02:17:13;;;;;;;2.33;1.00;;;17.20;44.60;;;;;;4848318;29;20205;-82
2021/03/17 02:20:15;;;;;;;2.53;1.30;;;17.20;44.60;;;;;;4839533;29;20736;-82
2021/03/17 02:23:16;;;;;;;2.63;1.25;;;17.20;44.50;;;;;;4850155;29;20249;-82
2021/03/17 02:26:25;;;;;;;2.03;1.17;;;17.20;44.60;;;;;;4850233;29;20622;-82
2021/03/17 02:28:58;;;;;;;2.50;0.90;;;17.20;44.50;;;;;;4849635;29;20622;-82
2021/03/17 02:31:47;;;;;;;1.67;1.10;;;17.20;44.50;;;;;;4848868;29;20241;-83
2021/03/17 02:34:21;;;;;;;2.65;1.10;;;17.20;44.40;;;;;;4849904;29;20186;-82
2021/03/17 02:37:04;;;;;;;1.98;0.90;;;17.20;44.50;;;;;;4847281;29;20348;-83
2021/03/17 02:39:39;;;;;;;3.08;1.13;;;17.20;44.60;;;;;;4848870;29;20252;-82
2021/03/17 02:42:15;;;;;;;2.97;1.33;;;17.20;44.60;;;;;;4848145;29;20200;-82
2021/03/17 02:45:03;;;;;;;4.28;1.08;;;17.20;44.70;;;;;;4849887;29;20233;-82
2021/03/17 02:47:31;;;;;;;3.92;1.20;;;17.20;44.70;;;;;;4845749;29;20181;-82
2021/03/17 02:50:06;;;;;;;1.90;1.02;;;17.20;44.70;;;;;;4832723;29;20233;-82
2021/03/17 02:52:54;;;;;;;2.22;1.30;;;17.20;44.60;;;;;;4847505;29;20169;-82
2021/03/17 02:55:22;;;;;;;3.08;1.20;;;17.20;44.60;;;;;;4847696;29;20166;-82
2021/03/17 02:57:49;;;;;;;2.63;0.98;;;17.20;44.60;;;;;;4831846;29;20260;-83
2021/03/17 03:00:16;;;;;;;2.80;1.20;;;17.20;44.60;;;;;;4847149;29;20190;-82
2021/03/17 03:02:42;;;;;;;4.28;1.10;;;17.20;44.70;;;;;;4833265;29;20189;-82
2021/03/17 03:05:14;;;;;;;3.05;1.00;;;17.20;44.70;;;;;;4847222;29;20166;-82
2021/03/17 03:07:40;;;;;;;2.53;1.08;;;17.20;44.60;;;;;;4832580;29;20256;-83
2021/03/17 03:10:08;;;;;;;3.60;1.38;;;17.20;44.60;;;;;;4846885;29;20195;-82
2021/03/17 03:12:34;;;;;;;2.38;1.00;;;17.20;44.70;;;;;;4831201;29;20239;-82
2021/03/17 03:15:10;;;;;;;1.63;1.00;;;17.20;44.60;;;;;;4845359;29;20175;-82
2021/03/17 03:17:38;;;;;;;2.95;1.10;;;17.20;44.60;;;;;;4829452;29;20641;-82
2021/03/17 03:20:08;;;;;;;2.72;1.05;;;17.20;44.60;;;;;;4844193;29;20165;-82
2021/03/17 03:22:35;;;;;;;2.90;1.30;;;17.20;44.70;;;;;;4844260;29;20166;-82
2021/03/17 03:25:02;;;;;;;2.92;1.17;;;17.20;44.80;;;;;;4830154;29;20177;-82
2021/03/17 03:27:27;;;;;;;1.95;0.95;;;17.10;44.80;;;;;;4829759;29;20177;-82
2021/03/17 03:29:56;;;;;;;2.17;1.05;;;17.10;44.80;;;;;;4844911;29;20177;-82
2021/03/17 03:32:23;;;;;;;1.63;1.05;;;17.20;44.70;;;;;;4845009;29;20610;-82
2021/03/17 03:34:50;;;;;;;1.73;1.05;;;17.20;44.80;;;;;;4845728;29;20162;-82
2021/03/17 03:37:16;;;;;;;2.22;1.00;;;17.20;44.70;;;;;;4844172;29;20434;-82
2021/03/17 03:39:42;;;;;;;1.45;0.98;;;17.20;44.80;;;;;;4844831;29;20260;-82
2021/03/17 03:42:08;;;;;;;3.00;1.25;;;17.20;44.80;;;;;;4829839;29;20640;-83
2021/03/17 03:44:34;;;;;;;1.70;0.82;;;17.20;44.70;;;;;;4844630;29;20289;-82
2021/03/17 03:47:01;;;;;;;1.60;0.85;;;17.20;44.70;;;;;;4829957;29;20504;-82
2021/03/17 03:49:28;;;;;;;3.90;1.55;;;17.20;44.90;;;;;;4844691;29;20170;-83
2021/03/17 03:52:02;;;;;;;1.17;0.85;;;17.10;44.80;;;;;;4844546;29;20679;-82
2021/03/17 03:54:49;;;;;;;3.50;1.30;;;17.10;44.70;;;;;;4843755;29;20244;-82
2021/03/17 03:57:28;;;;;;;2.50;1.25;;;17.10;44.80;;;;;;4828936;29;20197;-82
2021/03/17 03:59:55;;;;;;;1.95;1.08;;;17.10;44.80;;;;;;4843476;29;20188;-82
2021/03/17 04:02:24;;;;;;;2.65;1.30;;;17.10;44.70;;;;;;4828875;29;20178;-82
2021/03/17 04:04:50;;;;;;;1.52;1.10;;;17.10;44.70;;;;;;4843487;29;20185;-82
2021/03/17 04:07:16;;;;;;;1.60;0.98;;;17.20;44.80;;;;;;4844114;29;20165;-82
2021/03/17 04:09:50;;;;;;;3.10;1.13;;;17.10;44.70;;;;;;4844432;29;20165;-83
2021/03/17 04:12:21;;;;;;;3.20;1.08;;;17.10;44.80;;;;;;4829646;29;20307;-82
2021/03/17 04:14:52;;;;;;;2.58;1.00;;;17.10;44.80;;;;;;4843834;29;20181;-82
2021/03/17 04:17:39;;;;;;;1.85;0.93;;;17.10;45.00;;;;;;4828880;29;20201;-82
2021/03/17 04:20:10;;;;;;;1.73;1.00;;;17.10;44.80;;;;;;4844374;29;20669;-82
2021/03/17 04:22:38;;;;;;;2.50;1.10;;;17.10;44.90;;;;;;4828639;29;20169;-82
2021/03/17 04:25:08;;;;;;;2.60;1.10;;;17.10;44.90;;;;;;4844192;29;20162;-82
2021/03/17 04:27:46;;;;;;;1.80;1.10;;;17.10;44.80;;;;;;4844507;29;20166;-82
2021/03/17 04:30:14;;;;;;;2.90;1.23;;;17.10;44.80;;;;;;4844552;29;20662;-82
2021/03/17 04:32:46;;;;;;;2.92;1.00;;;17.10;44.90;;;;;;4797938;29;20201;-83
2021/03/17 04:35:13;;;;;;;3.42;1.20;;;17.10;45.60;;;;;;4828677;29;20177;-83
2021/03/17 04:37:41;;;;;;;2.40;1.10;;;17.10;44.70;;;;;;4843952;29;20285;-82
2021/03/17 04:40:07;;;;;;;1.65;1.00;;;17.10;44.80;;;;;;4827976;29;20185;-82
2021/03/17 04:42:42;;;;;;;1.50;1.10;;;17.10;44.80;;;;;;4843771;29;20177;-83
2021/03/17 04:45:11;;;;;;;1.98;1.00;;;17.10;44.90;;;;;;4843719;29;20157;-83
2021/03/17 04:47:51;;;;;;;1.88;0.95;;;17.10;44.90;;;;;;4843534;29;20256;-82
2021/03/17 04:50:30;;;;;;;2.88;0.95;;;17.10;44.90;;;;;;4843595;29;20565;-83
2021/03/17 04:52:58;;;;;;;2.03;1.05;;;17.10;44.90;;;;;;4828774;29;20197;-82
2021/03/17 04:55:24;;;;;;;2.15;1.42;;;17.10;44.90;;;;;;4843069;29;20213;-82
2021/03/17 04:57:54;;;;;;;1.45;0.98;;;17.10;44.80;;;;;;4845443;29;20197;-82
2021/03/17 05:00:23;;;;;;;1.80;1.00;;;17.10;44.70;;;;;;4830609;29;20174;-83
2021/03/17 05:03:01;;;;;;;3.72;1.20;;;17.20;44.60;;;;;;4848954;29;20178;-82
2021/03/17 05:05:38;;;;;;;1.60;0.93;;;17.20;44.30;;;;;;4847738;29;20186;-83
2021/03/17 05:08:06;;;;;;;1.65;0.90;;;17.20;44.20;;;;;;4849145;29;20158;-82
2021/03/17 05:10:33;;;;;;;1.13;0.90;;;17.30;44.20;;;;;;4849193;29;20158;-82
2021/03/17 05:13:09;;;;;;;2.42;1.02;;;17.30;44.30;;;;;;4848363;29;20525;-82
2021/03/17 05:15:36;;;;;;;3.30;1.10;;;17.20;44.10;;;;;;4849211;29;20569;-83
2021/03/17 05:18:05;;;;;;;1.15;1.00;;;17.20;44.20;;;;;;4848412;29;20220;-83
2021/03/17 05:20:35;;;;;;;2.15;0.95;;;17.30;44.00;;;;;;4833637;29;20173;-82
2021/03/17 05:23:03;;;;;;;4.35;1.00;;;17.30;44.00;;;;;;4833469;29;20177;-83
2021/03/17 05:25:39;;;;;;;0.85;0.80;;;17.30;44.20;;;;;;4833426;29;20185;-82
2021/03/17 05:28:07;;;;;;;2.17;0.95;;;17.30;44.20;;;;;;4833329;29;20556;-82
2021/03/17 05:30:38;;;;;;;1.55;1.00;;;17.30;43.80;;;;;;4833543;29;20174;-82
2021/03/17 05:33:07;;;;;;;2.95;1.17;;;17.30;43.90;;;;;;4833501;29;20180;-82
2021/03/17 05:35:33;;;;;;;0.85;0.80;;;17.30;44.10;;;;;;4847768;29;20165;-82
2021/03/17 05:37:59;;;;;;;1.70;1.10;;;17.30;43.90;;;;;;4817837;29;20229;-83
2021/03/17 05:40:34;;;;;;;1.98;0.95;;;17.20;44.20;;;;;;4850438;29;20165;-82
2021/03/17 05:43:06;;;;;;;1.73;0.80;;;17.20;44.00;;;;;;4833943;29;20174;-82
2021/03/17 05:45:35;;;;;;;1.50;0.90;;;17.30;44.10;;;;;;4834322;29;20182;-82
2021/03/17 05:48:05;;;;;;;2.20;1.00;;;17.30;43.60;;;;;;4834134;29;20255;-83
2021/03/17 05:50:35;;;;;;;1.00;0.90;;;17.30;43.80;;;;;;4836723;29;20185;-82
2021/03/17 05:53:04;;;;;;;1.13;0.93;;;17.20;43.90;;;;;;4836413;29;20173;-82
2021/03/17 05:55:32;;;;;;;1.08;0.70;;;17.20;43.70;;;;;;4851910;29;20162;-82
2021/03/17 05:58:13;;;;;;;1.20;0.80;;;17.30;43.80;;;;;;4850847;29;20679;-82
2021/03/17 06:00:43;;;;;;;2.25;0.90;;;17.30;43.80;;;;;;4851535;29;20154;-82
2021/03/17 06:03:13;;;;;;;1.73;1.08;;;17.30;43.70;;;;;;4852740;29;20165;-82
2021/03/17 06:05:45;;;;;;;1.60;0.80;;;17.20;43.70;;;;;;4836224;29;20229;-82
2021/03/17 06:08:23;;;;;;;1.35;0.98;;;17.20;43.60;;;;;;4869357;29;20216;-83
2021/03/17 06:11:04;;;;;;;1.25;0.88;;;17.20;43.70;;;;;;4852522;29;20229;-82
2021/03/17 06:13:31;;;;;;;1.48;0.73;;;17.20;43.80;;;;;;4873442;29;20199;-82
2021/03/17 06:15:58;;;;;;;2.15;0.90;;;17.20;43.40;;;;;;4887323;29;20183;-82
2021/03/17 06:18:38;;;;;;;1.45;1.00;;;17.30;44.20;;;;;;4841332;29;20637;-82
2021/03/17 06:21:05;;;;;;;1.88;0.90;;;17.30;43.50;;;;;;4872303;29;20245;-82
2021/03/17 06:23:32;;;;;;;1.92;0.85;;;17.30;43.40;;;;;;4881991;29;20191;-82
2021/03/17 06:25:58;;;;;;;2.60;0.98;;;17.30;43.30;;;;;;4835878;29;20169;-82
2021/03/17 06:28:24;;;;;;;1.45;1.02;;;17.20;43.40;;;;;;4850850;29;20172;-82
2021/03/17 06:30:55;;;;;;;1.88;0.98;;;17.30;43.20;;;;;;4848795;29;20240;-82
2021/03/17 06:33:21;;;;;;;1.30;0.90;;;17.30;43.50;;;;;;4830808;29;20166;-83
2021/03/17 06:35:48;;;;;;;1.25;0.93;;;17.30;43.30;;;;;;4863407;29;20188;-82
2021/03/17 06:38:25;;;;;;;1.25;0.85;;;17.30;43.30;;;;;;4852785;29;20252;-81
2021/03/17 06:41:00;;;;;;;1.90;0.80;;;17.30;43.20;;;;;;4868449;29;20184;-82
2021/03/17 06:43:38;;;;;;;1.38;1.00;;;17.30;44.00;;;;;;4869358;29;20213;-82
2021/03/17 06:46:05;;;;;;;1.38;0.77;;;17.20;43.50;;;;;;4870361;29;20616;-82
2021/03/17 06:48:32;;;;;;;1.05;0.80;;;17.30;43.20;;;;;;4841267;29;20213;-82
2021/03/17 06:51:23;;;;;;;2.78;0.90;;;17.30;43.10;;;;;;4855003;29;20185;-83
2021/03/17 06:53:52;;;;;;;3.55;0.70;;;17.30;43.30;;;;;;4859196;29;20233;-82
2021/03/17 06:56:31;;;;;;;1.83;0.77;;;17.30;43.50;;;;;;4822949;29;20220;-81
2021/03/17 06:58:59;;;;;;;1.33;0.80;;;17.40;44.90;;;;;;4824036;29;20163;-82
2021/03/17 07:01:27;;;;;;;1.73;1.00;;;17.30;44.80;;;;;;4801458;29;20198;-81
2021/03/17 07:03:58;;;;;;;1.58;0.80;;;17.30;44.50;;;;;;4792235;29;20241;-82
2021/03/17 07:06:25;;;;;;;1.10;0.85;;;17.30;44.20;;;;;;4820051;29;20233;-81
2021/03/17 07:08:52;;;;;;;1.52;0.80;;;17.30;44.40;;;;;;4819275;29;20186;-82
2021/03/17 07:11:24;;;;;;;2.10;0.93;;;17.30;43.90;;;;;;4817572;29;20198;-81
2021/03/17 07:14:03;;;;;;;1.27;0.90;;;17.30;43.80;;;;;;4799845;29;20325;-81
2021/03/17 07:16:40;;;;;;;1.40;0.85;;;17.30;43.70;;;;;;4787611;29;20210;-82
2021/03/17 07:19:07;;;;;;;1.77;1.00;;;17.30;43.70;;;;;;4802544;29;20166;-82
2021/03/17 07:21:42;;;;;;;1.80;0.90;;;17.30;44.00;;;;;;4820807;29;20193;-81
2021/03/17 07:24:15;;;;;;;1.92;0.80;;;17.30;43.70;;;;;;4809276;29;20169;-82
2021/03/17 07:27:14;;;;;;;0.95;0.88;;;17.30;43.40;;;;;;4800746;29;20244;-83
2021/03/17 07:29:46;;;;;;;1.85;0.95;;;17.40;43.60;;;;;;4860066;29;20173;-82
2021/03/17 07:32:17;;;;;;;0.95;0.80;;;17.40;43.30;;;;;;4884138;29;20211;-84
2021/03/17 07:34:44;;;;;;;1.35;1.00;;;17.40;43.30;;;;;;4859600;29;20769;-83
2021/03/17 07:37:16;;;;;;;1.35;0.90;;;17.40;43.20;;;;;;4860347;29;20280;-83
2021/03/17 07:39:42;;;;;;;0.70;0.60;;;17.40;43.20;;;;;;4842005;29;20188;-82
2021/03/17 07:42:10;;;;;;;1.42;0.80;;;17.50;43.10;;;;;;4869232;29;20637;-83
2021/03/17 07:44:43;;;;;;;2.03;0.93;;;17.40;43.10;;;;;;4869794;29;20393;-83
2021/03/17 07:47:11;;;;;;;1.27;0.88;;;17.40;43.10;;;;;;4820068;29;20204;-80
2021/03/17 07:49:40;;;;;;;1.58;1.10;;;17.40;43.00;;;;;;4833554;29;20173;-80
2021/03/17 07:52:16;;;;;;;1.40;0.80;;;17.50;43.00;;;;;;4853381;29;20640;-81
2021/03/17 07:54:44;;;;;;;2.78;0.90;;;17.50;43.00;;;;;;4843813;29;20164;-82
2021/03/17 07:57:10;;;;;;;1.55;1.00;;;17.50;42.80;;;;;;4846407;29;20220;-82
2021/03/17 07:59:35;;;;;;;3.22;0.85;;;17.50;43.00;;;;;;4845413;29;20545;-81
2021/03/17 08:02:01;;;;;;;2.63;1.00;;;17.50;43.00;;;;;;4851694;29;20166;-82
2021/03/17 08:04:32;;;;;;;0.82;0.70;;;17.60;42.80;;;;;;4853422;29;20183;-83
2021/03/17 08:07:38;;;;;;;1.73;0.93;;;17.50;42.60;;;;;;4851536;29;20229;-84
2021/03/17 08:10:07;;;;;;;1.35;0.90;;;17.50;42.70;;;;;;4869215;29;20186;-83
2021/03/17 08:12:33;;;;;;;1.40;0.70;;;17.50;42.90;;;;;;4837658;29;20165;-83
2021/03/17 08:15:00;;;;;;;1.45;0.85;;;17.60;42.80;;;;;;4839003;29;20193;-82
2021/03/17 08:17:53;;;;;;;1.48;0.90;;;17.60;42.70;;;;;;4845880;29;20197;-83
2021/03/17 08:20:29;;;;;;;0.85;0.82;;;17.60;42.90;;;;;;4832674;29;20165;-83
2021/03/17 08:23:02;;;;;;;1.83;1.13;;;17.70;42.50;;;;;;4856063;29;20169;-83
2021/03/17 08:25:45;;;;;;;2.97;1.10;;;17.80;42.30;;;;;;4857848;29;20189;-83
2021/03/17 08:28:29;;;;;;;1.45;0.80;;;17.80;42.40;;;;;;4858976;29;20179;-83
2021/03/17 08:30:56;;;;;;;1.40;0.85;;;17.70;42.40;;;;;;4868339;29;20169;-82
2021/03/17 08:34:03;;;;;;;2.22;1.20;;;17.70;42.60;;;;;;4854594;29;20173;-84
2021/03/17 08:36:42;;;;;;;1.77;1.00;;;17.70;42.60;;;;;;4880258;29;20207;-83
2021/03/17 08:39:31;;;;;;;2.20;0.90;;;17.70;42.80;;;;;;4871079;29;20164;-84
2021/03/17 08:42:11;;;;;;;4.03;1.20;;;17.70;42.80;;;;;;4886375;29;20180;-84
2021/03/17 08:44:40;;;;;;;1.90;1.00;;;17.70;42.60;;;;;;4873536;29;20217;-83
2021/03/17 08:47:29;;;;;;;1.70;0.85;;;17.70;42.60;;;;;;4863317;29;20222;-83
2021/03/17 08:50:30;;;;;;;3.33;1.10;;;17.70;42.80;;;;;;4859628;29;20177;-82
2021/03/17 08:52:55;;;;;;;1.88;1.38;;;17.70;42.60;;;;;;4865482;29;20185;-82
2021/03/17 08:55:34;;;;;;;4.45;0.95;;;17.80;42.60;;;;;;4843866;29;20176;-83
2021/03/17 08:58:21;;;;;;;3.15;1.02;;;17.80;42.70;;;;;;4826245;29;20201;-81
2021/03/17 09:00:58;;;;;;;2.88;0.93;;;17.80;42.60;;;;;;4842650;29;20221;-81
2021/03/17 09:03:36;;;;;;;3.45;1.20;;;17.80;42.80;;;;;;4873163;29;20169;-81
2021/03/17 09:06:10;;;;;;;2.33;0.80;;;17.80;42.70;;;;;;4874322;29;20164;-82
2021/03/17 09:08:53;;;;;;;1.50;1.00;;;17.80;42.60;;;;;;4892418;29;20259;-81
2021/03/17 09:11:31;;;;;;;1.60;1.00;;;17.80;42.70;;;;;;4861034;29;20173;-82
2021/03/17 09:14:00;;;;;;;3.67;1.02;;;17.80;42.60;;;;;;4872202;29;20169;-80
2021/03/17 09:16:28;;;;;;;1.23;0.90;;;17.80;42.80;;;;;;4844408;29;20188;-81
2021/03/17 09:19:11;;;;;;;3.08;1.00;;;17.80;42.80;;;;;;4823898;29;20166;-81
2021/03/17 09:21:39;;;;;;;1.00;0.90;;;17.80;42.40;;;;;;4838408;29;20177;-81
2021/03/17 09:24:35;;;;;;;1.63;0.85;;;17.90;42.40;;;;;;4840623;29;20161;-83
2021/03/17 09:27:28;;;;;;;3.50;0.93;;;17.90;42.30;;;;;;4854370;29;20185;-81
2021/03/17 09:30:23;;;;;;;1.58;0.85;;;17.90;42.50;;;;;;4867719;29;20218;-81
2021/03/17 09:33:10;;;;;;;;;;;;;;;;;;;;;
2021/03/17 09:35:41;;;;;;;1.92;0.90;;;17.90;42.40;;;;;;4852563;29;20229;-82
2021/03/17 09:38:19;;;;;;;1.35;0.90;;;17.90;42.60;;;;;;4837522;29;20233;-82
2021/03/17 09:40:55;;;;;;;2.60;1.02;;;17.90;42.40;;;;;;4822330;29;20185;-81
2021/03/17 09:43:28;;;;;;;1.38;1.10;;;17.90;42.30;;;;;;4841686;29;20244;-81
2021/03/17 09:45:55;;;;;;;2.47;1.02;;;17.90;42.40;;;;;;4852842;29;20173;-82
2021/03/17 09:48:21;;;;;;;2.10;1.08;;;17.90;42.30;;;;;;4869158;29;20660;-81
2021/03/17 09:50:47;;;;;;;3.78;1.02;;;17.90;42.10;;;;;;4855063;29;20184;-81
2021/03/17 09:53:16;;;;;;;2.45;1.00;;;17.90;42.50;;;;;;4855738;29;20169;-81
2021/03/17 09:55:45;;;;;;;2.53;1.05;;;18.00;42.20;;;;;;4855399;29;20157;-82
2021/03/17 09:58:11;;;;;;;2.33;1.00;;;17.90;42.30;;;;;;4869934;29;20227;-81
2021/03/17 10:00:37;;;;;;;1.48;0.98;;;17.90;42.10;;;;;;4839979;29;20236;-81
2021/03/17 10:03:05;;;;;;;2.13;1.10;;;18.00;43.20;;;;;;4839044;29;20169;-81
2021/03/17 10:05:34;;;;;;;3.97;1.20;;;17.90;42.70;;;;;;4856140;29;20169;-81
2021/03/17 10:08:00;;;;;;;4.57;1.58;;;17.80;42.70;;;;;;4869531;29;20181;-80
2021/03/17 10:10:25;;;;;;;8.93;1.45;;;17.90;42.70;;;;;;4854288;29;20185;-81
2021/03/17 10:12:52;;;;;;;12.35;1.77;;;17.90;42.70;;;;;;4853637;29;20196;-81
2021/03/17 10:15:28;;;;;;;8.35;1.70;;;17.80;42.70;;;;;;4855107;29;20185;-80
2021/03/17 10:18:01;;;;;;;12.32;2.35;;;17.90;42.60;;;;;;4884690;29;20260;-80
2021/03/17 10:20:27;;;;;;;14.68;2.53;;;17.90;42.70;;;;;;4855358;29;20185;-80
2021/03/17 10:23:00;;;;;;;16.30;2.15;;;18.00;42.50;;;;;;4857191;29;20169;-81
2021/03/17 10:25:29;;;;;;;12.02;1.98;;;17.90;42.60;;;;;;4835656;29;20165;-81
2021/03/17 10:28:10;;;;;;;9.77;2.30;;;18.00;42.60;;;;;;4853110;29;20175;-81
2021/03/17 10:30:42;;;;;;;7.07;1.77;;;17.90;42.60;;;;;;4856989;29;20169;-82
2021/03/17 10:33:23;;;;;;;10.50;1.95;;;18.00;42.30;;;;;;4854116;29;20169;-82
2021/03/17 10:35:58;;;;;;;6.15;1.65;;;18.10;42.00;;;;;;4869681;29;20161;-81
2021/03/17 10:38:36;;;;;;;6.28;1.50;;;18.10;42.30;;;;;;4867963;29;20224;-81
2021/03/17 10:41:44;;;;;;;6.65;1.45;;;18.00;42.40;;;;;;4863199;29;20172;-83
2021/03/17 10:44:39;;;;;;;7.95;1.40;;;18.00;42.30;;;;;;4789196;29;20588;-83
2021/03/17 10:47:39;;;;;;;4.07;1.45;;;18.00;42.40;;;;;;4810845;29;20159;-82
2021/03/17 10:50:35;;;;;;;6.18;1.70;;;18.00;42.30;;;;;;4815894;29;20223;-84
2021/03/17 10:53:43;;;;;;;3.92;1.25;;;18.00;42.40;;;;;;4792687;29;20183;-82
2021/03/17 10:56:21;;;;;;;6.28;1.67;;;18.00;42.10;;;;;;4753587;30;20166;-85
2021/03/17 10:58:51;;;;;;;7.18;1.70;;;18.00;42.10;;;;;;4751593;30;20193;-83
2021/03/17 11:01:26;;;;;;;5.15;1.60;;;18.00;42.40;;;;;;4860285;24;20310;-84
2021/03/17 11:09:12;;;;;;;5.93;2.00;;;17.90;43.10;;;;;;5509469;23;20235;-83
2021/03/17 11:11:51;;;;;;;7.45;1.50;;;17.90;42.10;;;;;;4854567;29;20208;-83
2021/03/17 11:14:47;;;;;;;6.05;1.75;;;17.90;42.20;;;;;;4865756;29;20224;-82
2021/03/17 11:17:18;;;;;;;5.93;1.83;;;18.00;42.00;;;;;;4843467;29;20211;-83
2021/03/17 11:19:59;;;;;;;5.18;1.60;;;18.00;41.70;;;;;;4866971;29;20222;-83
2021/03/17 11:22:34;;;;;;;5.75;1.70;;;18.10;41.70;;;;;;4886261;29;20193;-83
2021/03/17 11:25:05;;;;;;;3.88;1.50;;;18.00;41.80;;;;;;4867623;29;20160;-83
2021/03/17 11:27:31;;;;;;;3.38;1.60;;;18.00;41.70;;;;;;4852167;29;20204;-82
2021/03/17 11:29:58;;;;;;;5.82;1.65;;;18.00;42.10;;;;;;4856369;29;20240;-81
2021/03/17 11:32:28;;;;;;;5.65;1.55;;;17.90;41.90;;;;;;4851880;29;20631;-82
2021/03/17 11:35:05;;;;;;;6.88;1.70;;;17.90;41.90;;;;;;4855375;29;20183;-83
2021/03/17 11:37:31;;;;;;;3.15;1.45;;;17.90;41.60;;;;;;4870070;29;20190;-82
2021/03/17 11:40:01;;;;;;;7.60;1.88;;;18.00;41.70;;;;;;4862599;29;20183;-82
2021/03/17 11:42:27;;;;;;;9.30;1.58;;;18.00;41.50;;;;;;4854545;29;20191;-83
2021/03/17 11:44:57;;;;;;;3.15;1.40;;;18.00;41.80;;;;;;4858087;29;20179;-82
2021/03/17 11:47:40;;;;;;;6.05;1.77;;;18.00;42.10;;;;;;4880190;29;20167;-82
2021/03/17 11:50:11;;;;;;;6.60;1.30;;;17.90;41.90;;;;;;4843786;29;20197;-82
2021/03/17 11:53:27;;;;;;;6.35;1.55;;;18.00;41.40;;;;;;4840534;29;20176;-82
2021/03/17 11:55:54;;;;;;;4.93;1.50;;;18.00;41.30;;;;;;4852304;29;20252;-82
2021/03/17 11:58:22;;;;;;;3.42;1.48;;;18.00;41.20;;;;;;4858631;29;20193;-82
2021/03/17 12:00:50;;;;;;;6.70;1.83;;;18.00;41.10;;;;;;4836766;29;20641;-83
2021/03/17 12:03:15;;;;;;;3.55;1.52;;;18.10;41.50;;;;;;4833480;29;20173;-83
2021/03/17 12:05:43;;;;;;;3.78;1.50;;;18.00;41.20;;;;;;4847896;29;20163;-82
2021/03/17 12:08:09;;;;;;;2.05;1.40;;;18.10;41.10;;;;;;4840192;29;20182;-83
2021/03/17 12:10:37;;;;;;;2.90;1.52;;;18.10;41.20;;;;;;4818188;29;20192;-83
2021/03/17 12:13:03;;;;;;;6.05;1.85;;;18.10;40.90;;;;;;4851710;29;20161;-83
2021/03/17 12:15:32;;;;;;;7.88;2.97;;;18.20;41.00;;;;;;4824409;29;20299;-82
2021/03/17 12:17:58;;;;;;;6.18;1.88;;;18.20;41.00;;;;;;4855262;29;20252;-82
2021/03/17 12:20:31;;;;;;;5.35;2.28;;;18.20;41.20;;;;;;4856507;29;20172;-81
2021/03/17 12:22:57;;;;;;;5.82;2.47;;;18.20;41.10;;;;;;4841666;29;20637;-82
2021/03/17 12:25:23;;;;;;;6.03;2.55;;;18.20;41.10;;;;;;4842130;29;20169;-81
2021/03/17 12:27:49;;;;;;;3.42;2.17;;;18.20;41.20;;;;;;4841759;29;20156;-81
2021/03/17 12:30:17;;;;;;;5.82;2.30;;;18.10;41.40;;;;;;4842177;29;20196;-81
2021/03/17 12:32:43;;;;;;;5.75;2.20;;;18.20;41.20;;;;;;4842008;29;20181;-81
2021/03/17 12:35:12;;;;;;;3.85;1.80;;;18.20;41.40;;;;;;4826873;29;20672;-81
2021/03/17 12:37:42;;;;;;;6.90;2.03;;;18.10;41.60;;;;;;4841127;29;20196;-81
2021/03/17 12:40:10;;;;;;;3.80;1.80;;;18.10;41.80;;;;;;4841489;29;20497;-81
2021/03/17 12:42:44;;;;;;;3.22;1.85;;;18.00;42.10;;;;;;4827206;29;20179;-81
2021/03/17 12:45:10;;;;;;;5.85;2.10;;;18.10;41.40;;;;;;4839559;29;20177;-82
2021/03/17 12:47:36;;;;;;;2.70;1.70;;;18.10;41.50;;;;;;4820822;29;20280;-82
2021/03/17 12:50:08;;;;;;;3.60;2.05;;;18.10;41.80;;;;;;4850387;29;20195;-83
2021/03/17 12:52:34;;;;;;;3.10;2.00;;;18.10;41.30;;;;;;4843940;29;20187;-84
2021/03/17 12:55:09;;;;;;;6.40;2.28;;;18.10;41.50;;;;;;4819910;29;20188;-84
2021/03/17 12:57:38;;;;;;;5.25;2.40;;;18.10;41.00;;;;;;4831686;29;20586;-82
2021/03/17 13:00:16;;;;;;;4.25;2.00;;;18.20;40.80;;;;;;4829897;29;20177;-83
2021/03/17 13:02:46;;;;;;;4.50;2.30;;;18.10;40.90;;;;;;4830896;29;20164;-82
2021/03/17 13:05:20;;;;;;;3.60;2.47;;;18.20;40.90;;;;;;4816716;29;20184;-82
2021/03/17 13:07:46;;;;;;;5.32;2.40;;;18.20;41.00;;;;;;4847136;29;20168;-82
2021/03/17 13:10:34;;;;;;;;;;;;;;;;;;;;;
2021/03/17 13:13:00;;;;;;;4.85;2.53;;;18.10;41.70;;;;;;4850820;29;20263;-83
2021/03/17 13:15:37;;;;;;;7.00;2.67;;;18.10;41.70;;;;;;4820704;29;20197;-83
2021/03/17 13:18:40;;;;;;;3.88;2.25;;;18.10;41.60;;;;;;4849538;29;20200;-82
2021/03/17 13:28:14;;;;;;;3.45;2.30;;;18.10;41.40;;;;;;4769790;30;20204;-83
2021/03/17 13:31:21;;;;;;;3.80;2.55;;;18.10;41.20;;;;;;4759297;30;20278;-83